createdAt,value
2022-12-25T00:01:43.966Z,89.07
2022-12-25T00:04:34.953Z,89.48
2022-12-25T00:07:20.625Z,89.07
2022-12-25T00:10:31.840Z,89.05
2022-12-25T00:13:07.886Z,89.19
2022-12-25T00:19:04.667Z,89.40
2022-12-25T00:21:41.134Z,89.33
2022-12-25T00:24:16.034Z,89.08
2022-12-25T00:27:02.309Z,89.06
2022-12-25T00:29:49.872Z,89.66
2022-12-25T00:32:27.880Z,89.35
2022-12-25T00:35:50.357Z,89.08
2022-12-25T00:38:25.974Z,89.55
2022-12-25T00:41:11.908Z,89.31
2022-12-25T00:43:42.173Z,89.17
2022-12-25T00:46:31.477Z,89.19
2022-12-25T00:49:09.696Z,89.19
2022-12-25T00:52:12.800Z,89.02
2022-12-25T00:55:05.992Z,89.83
2022-12-25T00:57:56.111Z,89.46
2022-12-25T01:00:42.519Z,89.30
2022-12-25T01:04:25.165Z,89.23
2022-12-25T01:07:17.207Z,89.92
2022-12-25T01:10:12.000Z,89.76
2022-12-25T01:13:10.757Z,89.87
2022-12-25T01:16:25.855Z,89.72
2022-12-25T01:19:08.410Z,89.77
2022-12-25T01:22:28.350Z,89.86
2022-12-25T01:28:33.319Z,90.12
2022-12-25T01:31:20.920Z,89.93
2022-12-25T01:34:49.268Z,89.93
2022-12-25T01:37:46.003Z,89.75
2022-12-25T01:40:42.141Z,89.95
2022-12-25T01:43:26.408Z,90.32
2022-12-25T01:46:30.572Z,90.17
2022-12-25T01:49:23.381Z,90.34
2022-12-25T01:55:34.531Z,90.43
2022-12-25T01:58:44.907Z,90.01
2022-12-25T02:01:45.118Z,90.24
2022-12-25T02:04:57.498Z,90.55
2022-12-25T02:11:11.901Z,90.59
2022-12-25T02:14:20.022Z,90.33
2022-12-25T02:17:11.567Z,90.26
2022-12-25T02:20:25.526Z,90.20
2022-12-25T02:23:25.337Z,90.18
2022-12-25T02:26:30.663Z,90.02
2022-12-25T02:29:48.187Z,90.12
2022-12-25T02:32:51.252Z,90.18
2022-12-25T02:35:25.177Z,89.97
2022-12-25T02:37:57.529Z,90.04
2022-12-25T02:40:53.183Z,90.08
2022-12-25T02:44:04.671Z,89.94
2022-12-25T02:47:22.368Z,89.98
2022-12-25T02:50:40.401Z,89.76
2022-12-25T02:53:31.179Z,90.10
2022-12-25T02:56:27.415Z,89.79
2022-12-25T02:59:18.187Z,89.39
2022-12-25T03:02:17.771Z,89.48
2022-12-25T03:05:17.786Z,89.54
2022-12-25T03:07:54.071Z,89.92
2022-12-25T03:14:19.272Z,89.76
2022-12-25T03:17:08.873Z,89.75
2022-12-25T03:20:10.692Z,89.88
2022-12-25T03:23:05.461Z,89.84
2022-12-25T03:26:07.259Z,90.06
2022-12-25T03:28:47.093Z,90.21
2022-12-25T03:31:24.922Z,90.16
2022-12-25T03:34:36.381Z,90.48
2022-12-25T03:38:03.910Z,90.11
2022-12-25T03:41:21.987Z,90.08
2022-12-25T03:44:38.850Z,90.33
2022-12-25T03:47:59.669Z,90.25
2022-12-25T03:51:04.148Z,90.27
2022-12-25T03:53:58.559Z,90.55
2022-12-25T03:56:51.167Z,90.60
2022-12-25T03:59:42.350Z,90.06
2022-12-25T04:02:34.629Z,90.38
2022-12-25T04:06:17.469Z,90.87
2022-12-25T04:20:23.584Z,89.79
2022-12-25T04:24:35.251Z,89.52
2022-12-25T04:31:12.067Z,91.46
2022-12-25T10:43:59.344Z,82.91
2022-12-25T10:47:31.899Z,82.73
2022-12-25T10:50:33.976Z,82.94
2022-12-25T10:54:25.828Z,82.99
2022-12-25T10:57:26.424Z,83.21
2022-12-25T11:04:01.530Z,83.42
2022-12-25T11:06:33.471Z,83.57
2022-12-25T11:09:03.709Z,83.68
2022-12-25T11:11:32.303Z,83.61
2022-12-25T11:14:03.338Z,83.68
2022-12-25T11:16:33.990Z,83.79
2022-12-25T11:19:04.767Z,83.39
2022-12-25T11:21:35.103Z,83.47
2022-12-25T11:24:05.940Z,83.35
2022-12-25T11:26:47.902Z,83.53
2022-12-25T11:29:25.886Z,83.33
2022-12-25T11:31:57.352Z,83.35
2022-12-25T11:34:32.385Z,83.16
2022-12-25T11:37:02.970Z,83.37
2022-12-25T11:39:32.945Z,83.59
2022-12-25T11:42:06.971Z,83.65
2022-12-25T11:44:42.693Z,83.59
2022-12-25T11:47:18.693Z,83.58
2022-12-25T11:49:58.742Z,83.73
2022-12-25T11:52:33.107Z,83.58
2022-12-25T11:55:06.661Z,83.47
2022-12-25T11:57:38.054Z,83.39
2022-12-25T12:00:09.656Z,83.51
2022-12-25T12:02:45.044Z,83.31
2022-12-25T12:05:21.446Z,83.42
2022-12-25T12:07:58.632Z,83.44
2022-12-25T12:10:38.972Z,83.10
2022-12-25T12:13:21.705Z,82.97
2022-12-25T12:15:51.978Z,83.35
2022-12-25T12:18:23.370Z,83.22
2022-12-25T12:21:10.154Z,83.06
2022-12-25T12:23:51.695Z,83.37
2022-12-25T12:26:21.782Z,83.57
2022-12-25T12:28:52.573Z,83.83
2022-12-25T12:31:21.083Z,83.58
2022-12-25T12:33:54.587Z,83.94
2022-12-25T12:36:35.527Z,84.17
2022-12-25T12:39:06.389Z,84.43
2022-12-25T12:41:46.171Z,84.22
2022-12-25T12:44:18.165Z,84.47
2022-12-25T12:46:55.696Z,84.37
2022-12-25T12:49:28.051Z,84.40
2022-12-25T12:52:08.370Z,84.36
2022-12-25T12:54:54.733Z,83.86
2022-12-25T12:57:27.126Z,84.08
2022-12-25T12:59:55.498Z,83.99
2022-12-25T13:02:52.639Z,83.58
2022-12-25T13:05:34.441Z,83.50
2022-12-25T13:08:18.947Z,83.79
2022-12-25T13:10:50.853Z,83.66
2022-12-25T13:13:24.624Z,83.43
2022-12-25T13:15:53.902Z,83.45
2022-12-25T13:18:22.363Z,83.31
2022-12-25T13:20:56.432Z,82.73
2022-12-25T13:23:32.834Z,82.65
2022-12-25T13:26:03.570Z,82.55
2022-12-25T13:28:33.709Z,82.59
2022-12-25T13:31:08.372Z,82.77
2022-12-25T13:33:36.994Z,82.88
2022-12-25T13:36:06.939Z,82.95
2022-12-25T13:38:36.966Z,83.09
2022-12-25T13:41:19.336Z,83.42
2022-12-25T13:43:49.882Z,83.45
2022-12-25T13:46:26.399Z,83.92
2022-12-25T13:49:00.026Z,84.03
2022-12-25T13:51:30.059Z,84.28
2022-12-25T13:54:07.935Z,84.30
2022-12-25T13:56:36.591Z,84.45
2022-12-25T13:59:20.317Z,84.72
2022-12-25T14:01:51.291Z,84.69
2022-12-25T14:04:29.099Z,84.97
2022-12-25T14:06:57.598Z,85.00
2022-12-25T14:09:27.511Z,84.80
2022-12-25T14:11:58.020Z,85.01
2022-12-25T14:14:27.612Z,84.94
2022-12-25T14:17:00.411Z,85.10
2022-12-25T14:19:30.539Z,85.32
2022-12-25T14:22:04.025Z,85.20
2022-12-25T14:24:36.262Z,85.46
2022-12-25T14:27:07.122Z,85.52
2022-12-25T14:29:39.721Z,85.46
2022-12-25T14:32:12.374Z,85.34
2022-12-25T14:34:40.737Z,85.30
2022-12-25T14:37:17.330Z,85.41
2022-12-25T14:39:55.079Z,85.44
2022-12-25T14:42:25.154Z,85.66
2022-12-25T14:45:05.128Z,85.58
2022-12-25T14:47:40.441Z,85.61
2022-12-25T14:50:16.743Z,85.65
2022-12-25T14:52:46.817Z,85.43
2022-12-25T14:55:22.947Z,85.56
2022-12-25T14:57:54.493Z,85.66
2022-12-25T15:00:26.115Z,85.54
2022-12-25T15:02:57.276Z,85.74
2022-12-25T15:05:34.734Z,85.66
2022-12-25T15:08:21.154Z,85.50
2022-12-25T15:11:01.738Z,85.64
2022-12-25T15:13:32.468Z,85.67
2022-12-25T15:16:05.196Z,85.46
2022-12-25T15:18:38.876Z,85.50
2022-12-25T15:21:08.036Z,85.80
2022-12-25T15:23:36.451Z,85.62
2022-12-25T15:26:06.544Z,85.37
2022-12-25T15:28:34.917Z,85.30
2022-12-25T15:31:03.401Z,85.42
2022-12-25T15:33:33.406Z,85.26
2022-12-25T15:36:01.889Z,85.33
2022-12-25T15:38:36.575Z,85.70
2022-12-25T15:41:06.882Z,84.84
2022-12-25T15:43:42.400Z,85.00
2022-12-25T15:46:11.547Z,84.84
2022-12-25T15:48:39.913Z,84.84
2022-12-25T15:51:08.611Z,84.67
2022-12-25T15:53:36.950Z,84.70
2022-12-25T15:56:07.252Z,84.67
2022-12-25T15:58:35.686Z,84.99
2022-12-25T16:01:04.073Z,84.75
2022-12-25T16:03:32.758Z,84.59
2022-12-25T16:06:01.284Z,84.59
2022-12-25T16:08:29.620Z,84.52
2022-12-25T16:10:57.980Z,84.58
2022-12-25T16:13:27.783Z,84.38
2022-12-25T16:15:56.286Z,84.48
2022-12-25T16:18:25.172Z,84.74
2022-12-25T16:20:54.252Z,84.66
2022-12-25T16:23:23.213Z,84.26
2022-12-25T16:26:04.358Z,84.72
2022-12-25T16:28:45.352Z,84.44
2022-12-25T16:31:19.116Z,84.34
2022-12-25T16:37:47.185Z,84.07
2022-12-25T16:40:23.255Z,84.43
2022-12-25T16:47:21.847Z,84.07
2022-12-25T16:50:26.029Z,83.82
2022-12-25T16:53:56.535Z,84.06
2022-12-25T17:05:36.287Z,84.06
2022-12-25T17:09:06.939Z,84.47
2022-12-25T17:12:43.575Z,84.49
2022-12-25T17:16:21.061Z,84.67
2022-12-25T17:23:49.811Z,84.65
2022-12-25T17:55:27.286Z,85.44
2022-12-25T18:27:34.665Z,86.49
2022-12-25T20:39:18.551Z,87.41
2022-12-25T20:55:42.050Z,88.35
2022-12-25T21:04:07.894Z,88.32
2022-12-25T21:07:32.222Z,88.33
2022-12-25T21:10:54.615Z,88.46
2022-12-25T21:15:37.415Z,88.30
2022-12-25T21:24:27.357Z,88.62
2022-12-25T21:35:47.710Z,88.76
2022-12-25T22:16:26.255Z,88.94
2022-12-25T22:19:13.769Z,88.57
2022-12-25T22:21:42.634Z,88.85
2022-12-25T22:24:11.529Z,88.95
2022-12-25T22:26:44.342Z,88.96
2022-12-25T22:29:13.257Z,89.05
2022-12-25T22:31:46.636Z,88.97
2022-12-25T22:34:16.987Z,88.95
2022-12-25T22:36:45.602Z,88.68
2022-12-25T22:39:14.175Z,88.72
2022-12-25T22:41:44.238Z,88.78
2022-12-25T22:44:17.556Z,88.65
2022-12-25T22:46:46.560Z,88.62
2022-12-25T22:49:16.131Z,88.63
2022-12-25T22:51:44.683Z,88.57
2022-12-25T22:54:14.580Z,88.63
2022-12-25T22:56:46.662Z,88.62
2022-12-25T22:59:17.009Z,88.50
2022-12-25T23:01:46.363Z,88.44
2022-12-25T23:04:14.830Z,88.69
2022-12-25T23:06:44.325Z,89.07
2022-12-25T23:09:22.115Z,88.81
2022-12-25T23:11:54.183Z,88.79
2022-12-25T23:14:39.799Z,88.37
2022-12-25T23:17:31.092Z,88.43
2022-12-25T23:20:17.671Z,88.29
2022-12-25T23:23:04.023Z,88.49
2022-12-25T23:25:50.133Z,88.28
2022-12-25T23:28:40.379Z,87.99
2022-12-25T23:31:09.590Z,87.82
2022-12-25T23:33:38.732Z,87.35
2022-12-25T23:36:07.857Z,87.19
2022-12-25T23:38:36.220Z,87.14
2022-12-25T23:41:04.710Z,86.75
2022-12-25T23:43:34.497Z,86.59
2022-12-25T23:46:03.404Z,86.47
2022-12-25T23:48:31.876Z,86.39
2022-12-25T23:51:04.524Z,86.44
2022-12-25T23:53:33.410Z,86.33
2022-12-25T23:56:02.400Z,86.49
2022-12-25T23:58:31.730Z,86.37
